createdAt,value
2022-12-19T00:00:03.895Z,89.10
2022-12-19T00:01:03.407Z,89.10
2022-12-19T00:02:04.073Z,85.00
2022-12-19T00:03:04.334Z,85.00
2022-12-19T00:04:04.738Z,85.00
2022-12-19T00:05:03.635Z,85.00
2022-12-19T00:06:04.042Z,85.00
2022-12-19T00:07:04.517Z,85.60
2022-12-19T00:08:08.119Z,85.60
2022-12-19T00:09:04.462Z,85.60
2022-12-19T00:10:03.975Z,85.60
2022-12-19T00:11:04.150Z,85.60
2022-12-19T00:12:03.822Z,80.90
2022-12-19T00:13:03.760Z,80.90
2022-12-19T00:14:03.624Z,80.90
2022-12-19T00:15:04.498Z,80.90
2022-12-19T00:16:04.022Z,80.90
2022-12-19T00:17:03.476Z,81.40
2022-12-19T00:18:02.999Z,81.40
2022-12-19T00:19:03.537Z,81.40
2022-12-19T00:20:03.557Z,81.40
2022-12-19T00:21:03.430Z,81.40
2022-12-19T00:22:08.283Z,82.60
2022-12-19T00:23:03.216Z,82.60
2022-12-19T00:24:03.503Z,82.60
2022-12-19T00:25:03.224Z,82.60
2022-12-19T00:26:03.528Z,82.60
2022-12-19T00:27:03.859Z,85.40
2022-12-19T00:28:03.692Z,85.40
2022-12-19T00:29:03.760Z,85.40
2022-12-19T00:30:03.550Z,85.40
2022-12-19T00:31:03.996Z,85.40
2022-12-19T00:32:03.477Z,79.60
2022-12-19T00:33:03.467Z,79.60
2022-12-19T00:34:03.633Z,79.60
2022-12-19T00:35:03.414Z,79.60
2022-12-19T00:36:03.425Z,79.60
2022-12-19T00:37:03.624Z,86.70
2022-12-19T00:38:03.391Z,86.70
2022-12-19T00:39:07.918Z,86.70
2022-12-19T00:40:03.511Z,86.70
2022-12-19T00:41:03.505Z,86.70
2022-12-19T00:42:03.512Z,84.10
2022-12-19T00:43:03.818Z,84.10
2022-12-19T00:44:03.557Z,84.10
2022-12-19T00:45:03.885Z,84.10
2022-12-19T00:46:03.870Z,84.10
2022-12-19T00:47:03.584Z,81.40
2022-12-19T00:48:04.179Z,81.40
2022-12-19T00:49:03.731Z,81.40
2022-12-19T00:50:04.051Z,81.40
2022-12-19T00:51:04.029Z,81.40
2022-12-19T00:52:03.576Z,84.20
2022-12-19T00:53:02.955Z,84.20
2022-12-19T00:54:03.168Z,84.20
2022-12-19T00:55:03.485Z,84.20
2022-12-19T00:56:03.118Z,84.20
2022-12-19T00:57:04.042Z,80.60
2022-12-19T00:58:04.002Z,80.60
2022-12-19T00:59:03.984Z,80.60
2022-12-19T01:00:03.602Z,80.60
2022-12-19T01:01:03.703Z,80.60
2022-12-19T01:02:04.524Z,85.10
2022-12-19T01:03:05.650Z,85.10
2022-12-19T01:04:27.718Z,85.10
2022-12-19T01:05:04.453Z,85.10
2022-12-19T01:06:04.596Z,85.10
2022-12-19T01:07:04.408Z,85.50
2022-12-19T01:08:05.061Z,85.50
2022-12-19T01:09:04.820Z,85.50
2022-12-19T01:10:04.662Z,85.50
2022-12-19T01:11:04.500Z,85.50
2022-12-19T01:12:04.895Z,80.80
2022-12-19T01:13:04.693Z,80.80
2022-12-19T01:14:04.817Z,80.80
2022-12-19T01:15:05.457Z,80.80
2022-12-19T01:16:05.180Z,80.80
2022-12-19T01:17:04.143Z,75.60
2022-12-19T01:18:04.494Z,75.60
2022-12-19T01:19:04.178Z,75.60
2022-12-19T01:20:04.782Z,75.60
2022-12-19T01:21:04.669Z,75.60
2022-12-19T01:22:05.073Z,84.60
2022-12-19T01:23:05.034Z,84.60
2022-12-19T01:24:05.148Z,84.60
2022-12-19T01:25:04.673Z,84.60
2022-12-19T01:26:04.867Z,84.60
2022-12-19T01:27:04.300Z,83.40
2022-12-19T01:28:04.541Z,83.40
2022-12-19T01:29:04.178Z,83.40
2022-12-19T01:30:04.330Z,83.40
2022-12-19T01:31:04.222Z,83.40
2022-12-19T01:32:03.943Z,84.40
2022-12-19T01:33:04.208Z,84.40
2022-12-19T01:34:04.184Z,84.40
2022-12-19T01:35:04.219Z,84.40
2022-12-19T01:36:04.050Z,84.40
2022-12-19T01:37:04.887Z,80.70
2022-12-19T01:38:08.401Z,80.70
2022-12-19T01:39:04.639Z,80.70
2022-12-19T01:40:04.695Z,80.70
2022-12-19T01:41:04.776Z,80.70
2022-12-19T01:42:04.642Z,80.40
2022-12-19T01:43:04.910Z,80.40
2022-12-19T01:44:04.580Z,80.40
2022-12-19T01:45:04.660Z,80.40
2022-12-19T01:46:04.512Z,80.40
2022-12-19T01:47:03.870Z,76.90
2022-12-19T01:48:03.829Z,76.90
2022-12-19T01:49:04.476Z,76.90
2022-12-19T01:50:04.093Z,76.90
2022-12-19T01:51:04.355Z,76.90
2022-12-19T01:52:04.080Z,84.40
2022-12-19T01:53:04.276Z,84.40
2022-12-19T01:54:03.972Z,84.40
2022-12-19T01:55:03.982Z,84.40
2022-12-19T01:56:06.856Z,84.40
2022-12-19T01:57:05.067Z,83.60
2022-12-19T01:58:04.727Z,83.60
2022-12-19T01:59:06.595Z,83.60
2022-12-19T02:00:04.729Z,83.60
2022-12-19T02:01:04.557Z,83.60
2022-12-19T02:02:03.318Z,83.90
2022-12-19T02:03:03.332Z,83.90
2022-12-19T02:04:03.266Z,83.90
2022-12-19T02:05:03.409Z,83.90
2022-12-19T02:06:03.120Z,83.90
2022-12-19T02:07:06.280Z,82.50
2022-12-19T02:08:04.045Z,82.50
2022-12-19T02:09:04.038Z,82.50
2022-12-19T02:10:03.668Z,82.50
2022-12-19T02:11:03.679Z,82.50
2022-12-19T02:12:03.446Z,80.50
2022-12-19T02:13:03.323Z,80.50
2022-12-19T02:14:03.020Z,80.50
2022-12-19T02:15:03.658Z,80.50
2022-12-19T02:16:03.619Z,80.50
2022-12-19T02:17:03.639Z,85.20
2022-12-19T02:18:03.642Z,85.20
2022-12-19T02:19:03.682Z,85.20
2022-12-19T02:20:03.432Z,85.20
2022-12-19T02:21:03.639Z,85.20
2022-12-19T02:22:03.184Z,80.70
2022-12-19T02:23:03.773Z,80.70
2022-12-19T02:24:03.719Z,80.70
2022-12-19T02:25:03.568Z,80.70
2022-12-19T02:26:03.298Z,80.70
2022-12-19T02:27:03.918Z,86.70
2022-12-19T02:28:03.878Z,86.70
2022-12-19T02:29:03.851Z,86.70
2022-12-19T02:30:03.911Z,86.70
2022-12-19T02:31:04.022Z,86.70
2022-12-19T02:32:03.730Z,82.40
2022-12-19T02:33:03.414Z,82.40
2022-12-19T02:34:03.013Z,82.40
2022-12-19T02:35:03.012Z,82.40
2022-12-19T02:36:03.343Z,82.40
2022-12-19T02:37:03.663Z,87.50
2022-12-19T02:38:03.748Z,87.50
2022-12-19T02:39:03.756Z,87.50
2022-12-19T02:40:03.849Z,87.50
2022-12-19T02:41:03.201Z,87.50
2022-12-19T02:42:03.623Z,86.80
2022-12-19T02:43:03.675Z,86.80
2022-12-19T02:44:03.510Z,86.80
2022-12-19T02:45:03.431Z,86.80
2022-12-19T02:46:03.913Z,86.80
2022-12-19T02:47:03.155Z,84.80
2022-12-19T02:48:08.402Z,84.80
2022-12-19T02:49:03.045Z,84.80
2022-12-19T02:50:03.077Z,84.80
2022-12-19T02:51:03.233Z,84.80
2022-12-19T02:52:03.381Z,84.90
2022-12-19T02:53:03.237Z,84.90
2022-12-19T02:54:03.609Z,84.90
2022-12-19T02:55:03.322Z,84.90
2022-12-19T02:56:03.504Z,84.90
2022-12-19T02:57:03.352Z,87.60
2022-12-19T02:58:03.363Z,87.60
2022-12-19T02:59:03.707Z,87.60
2022-12-19T03:00:03.595Z,87.60
2022-12-19T03:01:03.549Z,87.60
2022-12-19T03:02:04.661Z,82.40
2022-12-19T03:03:04.769Z,82.40
2022-12-19T03:04:04.792Z,82.40
2022-12-19T03:05:04.695Z,82.40
2022-12-19T03:06:04.794Z,82.40
2022-12-19T03:07:04.052Z,85.70
2022-12-19T03:08:04.386Z,85.70
2022-12-19T03:09:04.092Z,85.70
2022-12-19T03:10:03.940Z,85.70
2022-12-19T03:11:04.131Z,85.70
2022-12-19T03:12:05.052Z,85.70
2022-12-19T03:13:04.836Z,85.70
2022-12-19T03:14:04.555Z,85.70
2022-12-19T03:15:05.005Z,85.70
2022-12-19T03:16:04.812Z,85.70
2022-12-19T03:17:05.248Z,89.20
2022-12-19T03:18:05.152Z,89.20
2022-12-19T03:19:04.708Z,89.20
2022-12-19T03:20:04.982Z,89.20
2022-12-19T03:21:04.985Z,89.20
2022-12-19T03:22:04.940Z,85.10
2022-12-19T03:23:05.020Z,85.10
2022-12-19T03:24:04.759Z,85.10
2022-12-19T03:25:04.901Z,85.10
2022-12-19T03:26:05.065Z,85.10
2022-12-19T03:27:04.189Z,89.50
2022-12-19T03:28:04.680Z,89.50
2022-12-19T03:29:04.048Z,89.50
2022-12-19T03:30:04.575Z,89.50
2022-12-19T03:31:04.250Z,89.50
2022-12-19T03:32:04.659Z,82.20
2022-12-19T03:33:04.093Z,82.20
2022-12-19T03:34:04.530Z,82.20
2022-12-19T03:35:04.083Z,82.20
2022-12-19T03:36:04.034Z,82.20
2022-12-19T03:37:04.631Z,80.30
2022-12-19T03:38:04.390Z,80.30
2022-12-19T03:39:04.903Z,80.30
2022-12-19T03:40:04.683Z,80.30
2022-12-19T03:41:04.438Z,81.50
2022-12-19T03:42:04.861Z,81.50
2022-12-19T03:43:04.617Z,81.50
2022-12-19T03:44:04.929Z,81.50
2022-12-19T03:45:04.454Z,81.50
2022-12-19T03:46:04.579Z,74.70
2022-12-19T03:47:04.298Z,74.70
2022-12-19T03:48:04.104Z,74.70
2022-12-19T03:49:04.272Z,74.70
2022-12-19T03:50:03.793Z,74.70
2022-12-19T03:51:04.118Z,78.80
2022-12-19T03:52:03.976Z,78.80
2022-12-19T03:53:03.866Z,78.80
2022-12-19T03:54:04.043Z,78.80
2022-12-19T03:55:04.204Z,78.80
2022-12-19T03:56:03.832Z,77.20
2022-12-19T03:57:04.450Z,77.20
2022-12-19T03:58:04.574Z,77.20
2022-12-19T03:59:04.010Z,77.20
2022-12-19T04:00:04.200Z,77.20
2022-12-19T04:01:04.272Z,77.40
2022-12-19T04:02:04.416Z,77.40
2022-12-19T04:03:04.837Z,77.40
2022-12-19T04:04:04.511Z,77.40
2022-12-19T04:05:04.658Z,77.40
2022-12-19T04:06:04.584Z,71.70
2022-12-19T04:07:03.449Z,71.70
2022-12-19T04:08:03.347Z,71.70
2022-12-19T04:09:03.735Z,71.70
2022-12-19T04:10:03.389Z,71.70
2022-12-19T04:11:03.575Z,74.90
2022-12-19T04:12:03.512Z,74.90
2022-12-19T04:13:03.773Z,74.90
2022-12-19T04:14:03.751Z,74.90
2022-12-19T04:15:03.649Z,74.90
2022-12-19T04:16:04.129Z,72.20
2022-12-19T04:17:04.582Z,72.20
2022-12-19T04:18:04.659Z,72.20
2022-12-19T04:19:04.051Z,72.20
2022-12-19T04:20:04.202Z,72.20
2022-12-19T04:21:04.131Z,72.20
2022-12-19T04:22:03.862Z,72.20
2022-12-19T04:23:03.977Z,72.20
2022-12-19T04:24:03.742Z,72.20
2022-12-19T04:25:03.757Z,72.20
2022-12-19T04:26:03.764Z,77.80
2022-12-19T04:27:04.032Z,77.80
2022-12-19T04:28:03.927Z,77.80
2022-12-19T04:29:04.361Z,77.80
2022-12-19T04:30:04.034Z,77.80
2022-12-19T04:31:03.897Z,77.00
2022-12-19T04:32:04.083Z,77.00
2022-12-19T04:33:03.511Z,77.00
2022-12-19T04:34:03.487Z,77.00
2022-12-19T04:35:04.055Z,77.00
2022-12-19T04:36:03.684Z,74.60
2022-12-19T04:37:03.912Z,74.60
2022-12-19T04:38:04.243Z,74.60
2022-12-19T04:39:04.098Z,74.60
2022-12-19T04:40:03.800Z,74.60
2022-12-19T04:41:03.902Z,75.00
2022-12-19T04:42:04.231Z,75.00
2022-12-19T04:43:04.429Z,75.00
2022-12-19T04:44:04.272Z,75.00
2022-12-19T04:45:04.177Z,75.00
2022-12-19T04:47:04.317Z,73.20
2022-12-19T04:48:04.388Z,73.20
2022-12-19T04:49:04.222Z,73.20
2022-12-19T04:50:04.313Z,73.20
2022-12-19T04:51:04.137Z,73.20
2022-12-19T04:52:03.813Z,73.20
2022-12-19T04:53:03.916Z,73.20
2022-12-19T04:54:04.172Z,73.20
2022-12-19T04:55:03.751Z,73.20
2022-12-19T04:56:03.926Z,75.30
2022-12-19T04:57:04.060Z,75.30
2022-12-19T04:58:04.585Z,75.30
2022-12-19T04:59:04.156Z,75.30
2022-12-19T05:00:04.356Z,75.30
2022-12-19T05:01:04.628Z,74.50
2022-12-19T05:02:04.429Z,74.50
2022-12-19T05:03:04.736Z,74.50
2022-12-19T05:04:05.113Z,74.50
2022-12-19T05:05:04.131Z,74.50
2022-12-19T05:06:04.612Z,77.20
2022-12-19T05:07:04.462Z,77.20
2022-12-19T05:08:04.340Z,77.20
2022-12-19T05:09:04.305Z,77.20
2022-12-19T05:10:04.466Z,77.20
2022-12-19T05:11:04.371Z,75.60
2022-12-19T05:12:03.826Z,75.60
2022-12-19T05:13:03.797Z,75.60
2022-12-19T05:14:04.184Z,75.60
2022-12-19T05:15:04.139Z,75.60
2022-12-19T05:16:03.959Z,75.30
2022-12-19T05:17:04.752Z,75.30
2022-12-19T05:18:04.330Z,75.30
2022-12-19T05:19:04.255Z,75.30
2022-12-19T05:20:04.455Z,75.30
2022-12-19T05:21:04.389Z,82.40
2022-12-19T05:22:03.748Z,82.40
2022-12-19T05:23:06.632Z,82.40
2022-12-19T05:24:03.568Z,82.40
2022-12-19T05:25:04.181Z,82.40
2022-12-19T05:26:03.973Z,74.70
2022-12-19T05:27:03.748Z,74.70
2022-12-19T05:28:03.938Z,74.70
2022-12-19T05:29:03.722Z,74.70
2022-12-19T05:30:04.117Z,74.70
2022-12-19T05:31:04.253Z,76.60
2022-12-19T05:32:04.688Z,76.60
2022-12-19T05:33:04.301Z,76.60
2022-12-19T05:34:04.889Z,76.60
2022-12-19T05:35:04.508Z,76.60
2022-12-19T05:36:04.604Z,77.80
2022-12-19T05:37:04.307Z,77.80
2022-12-19T05:38:04.880Z,77.80
2022-12-19T05:39:04.769Z,77.80
2022-12-19T05:40:04.811Z,77.80
2022-12-19T05:41:04.790Z,79.30
2022-12-19T05:42:05.033Z,79.30
2022-12-19T05:43:03.845Z,79.30
2022-12-19T05:44:04.185Z,79.30
2022-12-19T05:45:04.322Z,79.30
2022-12-19T05:46:03.935Z,78.20
2022-12-19T05:47:04.288Z,78.20
2022-12-19T05:48:04.024Z,78.20
2022-12-19T05:49:04.352Z,78.20
2022-12-19T05:50:04.752Z,78.20
2022-12-19T05:51:04.626Z,76.70
2022-12-19T05:52:04.300Z,76.70
2022-12-19T05:53:03.807Z,76.70
2022-12-19T05:54:03.724Z,76.70
2022-12-19T05:55:04.087Z,76.70
2022-12-19T05:56:04.243Z,75.90
2022-12-19T05:57:04.520Z,75.90
2022-12-19T05:58:04.243Z,75.90
2022-12-19T05:59:04.019Z,75.90
2022-12-19T06:00:04.034Z,75.90
2022-12-19T06:01:04.330Z,77.40
2022-12-19T06:02:04.518Z,77.40
2022-12-19T06:03:04.547Z,77.40
2022-12-19T06:04:04.641Z,77.40
2022-12-19T06:05:04.726Z,77.40
2022-12-19T06:06:04.611Z,76.90
2022-12-19T06:07:04.438Z,76.90
2022-12-19T06:08:04.540Z,76.90
2022-12-19T06:09:04.053Z,76.90
2022-12-19T06:10:04.450Z,76.90
2022-12-19T06:11:04.119Z,76.50
2022-12-19T06:12:04.878Z,76.50
2022-12-19T06:13:04.772Z,76.50
2022-12-19T06:14:04.480Z,76.50
2022-12-19T06:15:04.734Z,76.50
2022-12-19T06:16:04.534Z,77.30
2022-12-19T06:17:04.465Z,77.30
2022-12-19T06:18:04.373Z,77.30
2022-12-19T06:19:04.542Z,77.30
2022-12-19T06:20:04.399Z,77.30
2022-12-19T06:21:04.478Z,74.20
2022-12-19T06:22:03.556Z,74.20
2022-12-19T06:23:04.112Z,74.20
2022-12-19T06:24:03.895Z,74.20
2022-12-19T06:25:03.692Z,74.20
2022-12-19T06:26:04.014Z,72.60
2022-12-19T06:27:03.939Z,72.60
2022-12-19T06:28:03.807Z,72.60
2022-12-19T06:29:03.998Z,72.60
2022-12-19T06:30:03.942Z,72.60
2022-12-19T06:31:04.289Z,70.30
2022-12-19T06:32:04.424Z,70.30
2022-12-19T06:33:04.492Z,70.30
2022-12-19T06:34:04.426Z,70.30
2022-12-19T06:35:04.779Z,70.30
2022-12-19T06:36:04.007Z,74.50
2022-12-19T06:37:08.122Z,74.50
2022-12-19T06:38:04.005Z,74.50
2022-12-19T06:39:04.173Z,74.50
2022-12-19T06:40:04.453Z,74.50
2022-12-19T06:41:04.048Z,74.30
2022-12-19T06:42:04.390Z,74.30
2022-12-19T06:43:04.386Z,74.30
2022-12-19T06:44:04.220Z,74.30
2022-12-19T06:45:04.387Z,74.30
2022-12-19T06:46:04.684Z,71.80
2022-12-19T06:47:03.448Z,71.80
2022-12-19T06:48:03.976Z,71.80
2022-12-19T06:49:04.000Z,71.80
2022-12-19T06:50:03.582Z,71.80
2022-12-19T06:51:03.480Z,73.60
2022-12-19T06:52:08.904Z,73.60
2022-12-19T06:53:04.058Z,73.60
2022-12-19T06:54:03.938Z,73.60
2022-12-19T06:55:04.285Z,73.60
2022-12-19T06:56:04.061Z,71.30
2022-12-19T06:57:04.349Z,71.30
2022-12-19T06:58:04.242Z,71.30
2022-12-19T06:59:04.281Z,71.30
2022-12-19T07:00:03.946Z,71.30
2022-12-19T07:01:04.518Z,76.10
2022-12-19T07:02:03.851Z,76.10
2022-12-19T07:03:04.254Z,76.10
2022-12-19T07:04:04.093Z,76.10
2022-12-19T07:05:04.273Z,76.10
2022-12-19T07:06:03.786Z,70.80
2022-12-19T07:07:03.884Z,70.80
2022-12-19T07:08:03.981Z,70.80
2022-12-19T07:09:03.965Z,70.80
2022-12-19T07:10:04.262Z,70.80
2022-12-19T07:11:03.832Z,77.10
2022-12-19T07:12:04.172Z,77.10
2022-12-19T07:13:04.173Z,77.10
2022-12-19T07:14:04.278Z,77.10
2022-12-19T07:15:04.612Z,77.10
2022-12-19T07:16:04.235Z,70.10
2022-12-19T07:17:03.669Z,70.10
2022-12-19T07:18:03.433Z,70.10
2022-12-19T07:19:03.469Z,70.10
2022-12-19T07:20:03.841Z,70.10
2022-12-19T07:21:03.474Z,68.20
2022-12-19T07:22:04.303Z,68.20
2022-12-19T07:23:04.141Z,68.20
2022-12-19T07:24:04.340Z,68.20
2022-12-19T07:25:03.761Z,68.20
2022-12-19T07:26:04.015Z,72.30
2022-12-19T07:27:03.562Z,72.30
2022-12-19T07:28:03.766Z,72.30
2022-12-19T07:29:03.673Z,72.30
2022-12-19T07:30:03.920Z,72.30
2022-12-19T07:31:03.845Z,72.30
2022-12-19T07:32:03.802Z,72.30
2022-12-19T07:33:04.135Z,72.30
2022-12-19T07:34:03.773Z,72.30
2022-12-19T07:35:04.146Z,72.30
2022-12-19T07:36:03.863Z,73.20
2022-12-19T07:37:03.148Z,73.20
2022-12-19T07:38:03.258Z,73.20
2022-12-19T07:39:03.413Z,73.20
2022-12-19T07:40:03.162Z,73.20
2022-12-19T07:41:03.175Z,75.40
2022-12-19T07:42:03.588Z,75.40
2022-12-19T07:43:03.211Z,75.40
2022-12-19T07:44:03.297Z,75.40
2022-12-19T07:45:03.518Z,75.40
2022-12-19T07:46:03.070Z,74.00
2022-12-19T07:47:03.838Z,74.00
2022-12-19T07:48:03.448Z,74.00
2022-12-19T07:49:03.459Z,74.00
2022-12-19T07:50:03.597Z,74.00
2022-12-19T07:51:03.501Z,70.30
2022-12-19T07:52:03.887Z,70.30
2022-12-19T07:53:03.543Z,70.30
2022-12-19T07:54:03.993Z,70.30
2022-12-19T07:55:03.876Z,70.30
2022-12-19T07:56:03.902Z,69.80
2022-12-19T07:57:03.483Z,69.80
2022-12-19T07:58:03.007Z,69.80
2022-12-19T07:59:03.037Z,69.80
2022-12-19T08:00:03.128Z,69.80
2022-12-19T08:01:03.333Z,69.70
2022-12-19T08:02:04.786Z,69.70
2022-12-19T08:03:04.410Z,69.70
2022-12-19T08:04:04.306Z,69.70
2022-12-19T08:05:04.384Z,69.70
2022-12-19T08:06:04.394Z,69.90
2022-12-19T08:07:04.664Z,69.90
2022-12-19T08:08:04.665Z,69.90
2022-12-19T08:09:04.457Z,69.90
2022-12-19T08:10:04.730Z,69.90
2022-12-19T08:11:04.304Z,66.40
2022-12-19T08:12:03.653Z,66.40
2022-12-19T08:13:03.914Z,66.40
2022-12-19T08:14:04.193Z,66.40
2022-12-19T08:15:03.861Z,66.40
2022-12-19T08:16:04.257Z,69.60
2022-12-19T08:17:20.142Z,69.60
2022-12-19T08:18:04.395Z,69.60
2022-12-19T08:19:03.849Z,69.60
2022-12-19T08:20:04.169Z,69.60
2022-12-19T08:21:03.872Z,70.00
2022-12-19T08:22:03.856Z,70.00
2022-12-19T08:23:03.951Z,70.00
2022-12-19T08:24:03.914Z,70.00
2022-12-19T08:25:03.880Z,70.00
2022-12-19T08:26:04.089Z,68.30
2022-12-19T08:27:03.993Z,68.30
2022-12-19T08:28:03.405Z,68.30
2022-12-19T08:29:03.938Z,68.30
2022-12-19T08:30:03.870Z,68.30
2022-12-19T08:31:03.807Z,70.00
2022-12-19T08:32:04.067Z,70.00
2022-12-19T08:33:04.414Z,70.00
2022-12-19T08:34:04.476Z,70.00
2022-12-19T08:35:04.054Z,70.00
2022-12-19T08:36:03.888Z,64.50
2022-12-19T08:37:04.663Z,64.50
2022-12-19T08:38:04.421Z,64.50
2022-12-19T08:39:04.205Z,64.50
2022-12-19T08:40:04.516Z,64.50
2022-12-19T08:41:04.288Z,67.50
2022-12-19T08:42:04.033Z,67.50
2022-12-19T08:43:03.872Z,67.50
2022-12-19T08:44:04.167Z,67.50
2022-12-19T08:45:04.027Z,67.50
2022-12-19T08:46:03.660Z,70.80
2022-12-19T08:47:04.150Z,70.80
2022-12-19T08:48:03.872Z,70.80
2022-12-19T08:49:04.150Z,70.80
2022-12-19T08:50:04.284Z,70.80
2022-12-19T08:51:03.939Z,71.90
2022-12-19T08:52:04.561Z,71.90
2022-12-19T08:53:04.132Z,71.90
2022-12-19T08:54:05.186Z,71.90
2022-12-19T08:55:04.540Z,71.90
2022-12-19T08:56:04.169Z,71.90
2022-12-19T08:57:03.283Z,71.90
2022-12-19T08:58:03.638Z,71.90
2022-12-19T08:59:03.433Z,71.90
2022-12-19T09:00:03.614Z,71.90
2022-12-19T09:01:05.553Z,61.60
2022-12-19T09:02:05.787Z,61.60
2022-12-19T09:03:04.471Z,61.60
2022-12-19T09:04:27.804Z,61.60
2022-12-19T09:06:00.418Z,61.60
2022-12-19T09:06:09.233Z,68.00
2022-12-19T09:07:04.396Z,68.00
2022-12-19T09:08:04.040Z,68.00
2022-12-19T09:09:04.174Z,68.00
2022-12-19T09:10:04.136Z,68.00
2022-12-19T09:11:04.471Z,66.20
2022-12-19T09:12:04.384Z,66.20
2022-12-19T09:13:04.199Z,66.20
2022-12-19T09:14:04.021Z,66.20
2022-12-19T09:15:04.147Z,66.20
2022-12-19T09:16:04.078Z,62.90
2022-12-19T09:17:04.703Z,62.90
2022-12-19T09:18:04.005Z,62.90
2022-12-19T09:19:04.188Z,62.90
2022-12-19T09:20:04.406Z,62.90
2022-12-19T09:21:07.770Z,65.00
2022-12-19T09:22:04.740Z,65.00
2022-12-19T09:23:04.554Z,65.00
2022-12-19T09:24:07.875Z,65.00
2022-12-19T09:25:04.535Z,65.00
2022-12-19T09:26:04.880Z,65.60
2022-12-19T09:27:04.905Z,65.60
2022-12-19T09:29:11.070Z,65.60
2022-12-19T09:30:04.600Z,65.60
2022-12-19T09:31:04.539Z,64.70
2022-12-19T09:32:04.350Z,64.70
2022-12-19T09:33:04.079Z,64.70
2022-12-19T09:34:04.074Z,64.70
2022-12-19T09:35:04.297Z,64.70
2022-12-19T09:36:04.428Z,60.80
2022-12-19T09:37:05.008Z,60.80
2022-12-19T09:38:04.609Z,60.80
2022-12-19T09:39:04.771Z,60.80
2022-12-19T09:40:04.904Z,60.80
2022-12-19T09:41:04.425Z,67.00
2022-12-19T09:42:04.722Z,67.00
2022-12-19T09:43:04.549Z,67.00
2022-12-19T09:44:04.386Z,67.00
2022-12-19T09:45:04.476Z,67.00
2022-12-19T09:46:04.842Z,71.90
2022-12-19T09:47:03.962Z,71.90
2022-12-19T09:48:05.801Z,71.90
2022-12-19T09:49:03.998Z,71.90
2022-12-19T09:50:04.168Z,71.90
2022-12-19T09:51:09.676Z,65.00
2022-12-19T09:52:04.590Z,65.00
2022-12-19T09:53:04.448Z,65.00
2022-12-19T09:54:04.579Z,65.00
2022-12-19T09:55:04.483Z,65.00
2022-12-19T09:56:04.224Z,62.30
2022-12-19T09:57:04.402Z,62.30
2022-12-19T09:58:05.949Z,62.30
2022-12-19T09:59:04.410Z,62.30
2022-12-19T10:00:04.858Z,62.30
2022-12-19T10:01:04.772Z,65.50
2022-12-19T10:02:03.710Z,65.50
2022-12-19T10:03:03.854Z,65.50
2022-12-19T10:04:03.744Z,65.50
2022-12-19T10:05:24.788Z,65.50
2022-12-19T10:06:53.210Z,65.80
2022-12-19T10:07:19.849Z,65.80
2022-12-19T10:08:09.361Z,65.80
2022-12-19T10:10:24.154Z,65.80
2022-12-19T10:12:35.451Z,65.80
2022-12-19T10:12:41.242Z,69.00
2022-12-19T10:12:43.503Z,69.00
2022-12-19T10:13:12.217Z,69.00
2022-12-19T10:14:04.183Z,69.00
2022-12-19T10:15:04.091Z,69.00
2022-12-19T10:16:03.914Z,66.70
2022-12-19T10:17:23.704Z,66.70
2022-12-19T10:18:03.347Z,66.70
2022-12-19T10:19:03.364Z,66.70
2022-12-19T10:20:03.887Z,66.70
2022-12-19T10:21:03.418Z,63.00
2022-12-19T10:22:19.638Z,63.00
2022-12-19T10:23:03.939Z,63.00
2022-12-19T10:24:03.987Z,63.00
2022-12-19T10:25:09.378Z,63.00
2022-12-19T10:26:03.591Z,64.10
2022-12-19T10:27:03.703Z,64.10
2022-12-19T10:28:03.791Z,64.10
2022-12-19T10:29:05.423Z,64.10
2022-12-19T10:30:04.269Z,64.10
2022-12-19T10:31:12.538Z,70.50
2022-12-19T10:32:03.221Z,70.50
2022-12-19T10:33:03.477Z,70.50
2022-12-19T10:34:03.619Z,70.50
2022-12-19T10:35:03.603Z,70.50
2022-12-19T10:36:03.253Z,68.50
2022-12-19T10:37:24.439Z,68.50
2022-12-19T10:38:03.607Z,68.50
2022-12-19T10:39:03.507Z,68.50
2022-12-19T10:40:03.354Z,68.50
2022-12-19T10:41:03.531Z,68.00
2022-12-19T10:42:03.691Z,68.00
2022-12-19T10:43:10.425Z,68.00
2022-12-19T10:44:03.669Z,68.00
2022-12-19T10:45:03.584Z,68.00
2022-12-19T10:46:03.910Z,64.10
2022-12-19T10:47:04.574Z,64.10
2022-12-19T10:48:03.695Z,64.10
2022-12-19T10:49:03.547Z,64.10
2022-12-19T10:50:09.184Z,64.10
2022-12-19T10:51:06.915Z,62.80
2022-12-19T10:52:04.051Z,62.80
2022-12-19T10:53:03.917Z,62.80
2022-12-19T10:54:04.331Z,62.80
2022-12-19T10:55:04.320Z,62.80
2022-12-19T10:56:04.107Z,63.50
2022-12-19T10:57:03.371Z,63.50
2022-12-19T10:58:03.677Z,63.50
2022-12-19T10:59:04.849Z,63.50
2022-12-19T11:00:03.719Z,63.50
2022-12-19T11:01:03.213Z,63.70
2022-12-19T11:02:07.214Z,63.70
2022-12-19T11:03:03.859Z,63.70
2022-12-19T11:04:04.063Z,63.70
2022-12-19T11:05:03.625Z,63.70
2022-12-19T11:06:04.125Z,63.80
2022-12-19T11:07:04.295Z,63.80
2022-12-19T11:08:03.841Z,63.80
2022-12-19T11:09:04.416Z,63.80
2022-12-19T11:11:40.365Z,63.80
2022-12-19T11:12:38.837Z,60.40
2022-12-19T11:15:31.797Z,60.40
2022-12-19T11:18:45.288Z,60.40
2022-12-19T11:20:18.241Z,60.40
2022-12-19T11:20:36.363Z,60.40
2022-12-19T11:21:29.265Z,65.70
2022-12-19T11:22:13.549Z,65.70
2022-12-19T11:26:05.674Z,65.70
2022-12-19T11:29:18.419Z,65.70
2022-12-19T11:29:19.525Z,65.70
2022-12-19T11:29:25.558Z,58.30
2022-12-19T11:29:38.526Z,58.30
2022-12-19T11:29:39.219Z,58.30
2022-12-19T11:29:54.648Z,58.30
2022-12-19T11:30:36.278Z,65.80
2022-12-19T11:30:39.083Z,65.80
2022-12-19T11:30:41.123Z,65.80
2022-12-19T11:30:41.125Z,58.30
2022-12-19T11:30:47.441Z,65.80
2022-12-19T11:32:35.841Z,62.90
2022-12-19T11:33:03.347Z,62.90
2022-12-19T11:34:02.938Z,62.90
2022-12-19T11:35:02.973Z,62.90
2022-12-19T11:36:03.135Z,65.80
2022-12-19T11:37:03.268Z,65.80
2022-12-19T11:38:03.082Z,65.80
2022-12-19T11:39:03.250Z,65.80
2022-12-19T11:40:03.214Z,65.80
2022-12-19T11:41:03.496Z,59.80
2022-12-19T11:42:03.800Z,59.80
2022-12-19T11:43:42.736Z,59.80
2022-12-19T11:44:03.489Z,59.80
2022-12-19T11:45:03.389Z,59.80
2022-12-19T11:46:03.557Z,61.30
2022-12-19T11:47:03.373Z,61.30
2022-12-19T11:48:03.540Z,61.30
2022-12-19T11:49:03.235Z,61.30
2022-12-19T11:50:03.173Z,61.30
2022-12-19T11:51:03.185Z,61.90
2022-12-19T11:52:03.394Z,61.90
2022-12-19T11:53:05.733Z,61.90
2022-12-19T11:54:03.250Z,61.90
2022-12-19T11:55:03.354Z,61.90
2022-12-19T11:56:03.428Z,57.90
2022-12-19T11:57:03.608Z,57.90
2022-12-19T11:58:03.397Z,57.90
2022-12-19T11:59:03.666Z,57.90
2022-12-19T12:00:05.661Z,57.90
2022-12-19T12:01:03.757Z,60.60
2022-12-19T12:02:04.684Z,60.60
2022-12-19T12:03:04.550Z,60.60
2022-12-19T12:04:04.635Z,60.60
2022-12-19T12:05:04.959Z,60.60
2022-12-19T12:06:04.810Z,61.90
2022-12-19T12:07:06.659Z,61.90
2022-12-19T12:10:48.616Z,61.90
2022-12-19T12:12:32.212Z,61.90
2022-12-19T12:12:49.658Z,61.90
2022-12-19T12:18:35.905Z,60.90
2022-12-19T12:18:39.876Z,60.90
2022-12-19T12:21:52.044Z,60.90
2022-12-19T12:24:11.501Z,60.90
2022-12-19T12:26:21.740Z,60.90
2022-12-19T12:30:26.088Z,63.40
2022-12-19T12:30:28.365Z,63.40
2022-12-19T12:31:07.207Z,63.40
2022-12-19T12:31:07.301Z,63.40
2022-12-19T12:31:13.967Z,63.40
2022-12-19T12:31:18.532Z,59.30
2022-12-19T12:31:18.720Z,59.30
2022-12-19T12:31:21.672Z,59.30
2022-12-19T12:31:38.463Z,59.30
2022-12-19T12:31:40.798Z,57.80
2022-12-19T12:31:44.602Z,57.80
2022-12-19T12:31:50.994Z,57.80
2022-12-19T12:31:56.042Z,57.80
2022-12-19T12:32:00.365Z,57.80
2022-12-19T12:32:06.313Z,59.30
2022-12-19T12:35:09.312Z,60.10
2022-12-19T12:35:38.056Z,60.10
2022-12-19T12:35:46.225Z,60.10
2022-12-19T12:37:03.437Z,60.10
2022-12-19T12:38:24.988Z,56.40
2022-12-19T12:39:03.881Z,56.40
2022-12-19T12:40:04.278Z,56.40
2022-12-19T12:41:03.636Z,56.40
2022-12-19T12:42:04.520Z,56.40
2022-12-19T12:43:04.087Z,56.40
2022-12-19T12:44:04.578Z,56.40
2022-12-19T12:45:04.660Z,56.40
2022-12-19T12:46:04.554Z,56.10
2022-12-19T12:47:04.676Z,56.10
2022-12-19T12:48:04.277Z,56.10
2022-12-19T12:49:04.640Z,56.10
2022-12-19T12:50:04.480Z,56.10
2022-12-19T12:51:04.202Z,57.40
2022-12-19T12:52:04.386Z,57.40
2022-12-19T12:53:04.325Z,57.40
2022-12-19T12:54:04.185Z,57.40
2022-12-19T12:55:04.402Z,57.40
2022-12-19T12:56:04.401Z,54.00
2022-12-19T12:57:04.935Z,54.00
2022-12-19T12:58:07.932Z,54.00
2022-12-19T12:59:04.678Z,54.00